EW1994 Weather Reports


Display with metric or nautical units.
time (UTC)temp
F
wind
direction
speed
MPH
gust
MPH
rain 1hr
in
rain 24hr
in
rain mn
in
humidity
%
barometer
mb
20171216220658 42 74 0.0 0.0 0.00 0.33 0.00 78 1026.4
20171216215152 42 74 0.0 0.0 0.00 0.33 0.00 78 1026.5
20171216213707 42 74 0.0 1.0 0.00 0.33 0.00 78 1026.4
20171216212207 42 74 0.0 0.0 0.00 0.33 0.00 79 1026.6
20171216210711 42 74 0.0 0.0 0.00 0.33 0.00 78 1027.0
20171216205158 41 74 0.0 0.0 0.00 0.33 0.00 78 1027.1
20171216203658 41 74 0.0 1.0 0.00 0.33 0.00 79 1027.3
20171216202159 41 74 0.0 1.0 0.00 0.33 0.00 79 1027.4
20171216200651 42 74 0.0 1.0 0.00 0.33 0.00 80 1027.4
20171216195214 42 74 0.0 0.0 0.00 0.33 0.00 80 1027.0
20171216193700 41 74 0.0 0.0 0.00 0.33 0.00 80 1026.7
20171216192145 40 74 0.0 1.0 0.00 0.33 0.00 80 1026.9
20171216190654 40 74 0.0 3.0 0.00 0.33 0.00 80 1027.2
20171216185152 40 92 0.0 0.0 0.00 0.33 0.00 80 1027.4
20171216183644 39 92 0.0 0.0 0.00 0.33 0.00 79 1027.4
20171216182138 39 92 0.0 0.0 0.00 0.33 0.00 79 1027.7
20171216180651 39 92 0.0 0.0 0.00 0.33 0.00 79 1028.0
20171216175350 39 92 0.0 0.0 0.00 0.33 0.00 79 1027.7
20171216173646 38 92 0.0 0.0 0.00 0.33 0.00 79 1027.7
20171216172151 38 92 0.0 0.0 0.00 0.33 0.00 79 1027.4
20171216170747 38 92 0.0 0.0 0.00 0.33 0.00 79 1027.2
20171216165119 38 92 0.0 0.0 0.00 0.33 0.00 79 1027.0
20171216163649 38 92 0.0 0.0 0.00 0.33 0.00 79 1026.9
20171216162153 38 92 0.0 1.0 0.00 0.33 0.00 79 1026.8
20171216160616 37 92 0.0 0.0 0.00 0.33 0.00 79 1026.8
20171216155135 37 92 0.0 0.0 0.00 0.34 0.00 79 1026.7
20171216153610 37 92 0.0 0.0 0.00 0.34 0.00 79 1026.3
20171216152110 38 92 0.0 0.0 0.00 0.34 0.00 79 1026.3
20171216150630 38 92 0.0 0.0 0.00 0.34 0.00 79 1026.2
20171216145118 38 92 0.0 0.0 0.00 0.34 0.00 79 1025.9
20171216143611 38 92 0.0 0.0 0.00 0.34 0.00 79 1025.8
20171216142142 38 92 0.0 0.0 0.00 0.34 0.00 79 1026.0
20171216140611 38 92 0.0 0.0 0.00 0.34 0.00 79 1026.2
20171216135156 38 92 0.0 1.0 0.00 0.35 0.00 79 1026.3
20171216133606 38 92 0.0 0.0 0.00 0.35 0.00 78 1026.2
20171216132106 38 92 0.0 0.0 0.00 0.35 0.00 78 1026.1
20171216130607 38 92 0.0 0.0 0.00 0.35 0.00 78 1026.0
20171216125103 38 92 0.0 2.0 0.00 0.35 0.00 78 1026.0
20171216123620 38 120 0.0 1.0 0.00 0.35 0.00 78 1025.8
20171216122118 38 121 0.0 1.0 0.00 0.35 0.00 78 1026.0
20171216120610 38 121 0.0 0.0 0.00 0.35 0.00 78 1025.9
20171216115112 39 121 0.0 1.0 0.00 0.35 0.00 78 1026.0
20171216113606 38 121 0.0 1.0 0.00 0.35 0.00 78 1025.8
20171216112223 38 121 0.0 1.0 0.00 0.35 0.00 78 1026.0
20171216110617 39 237 0.0 0.0 0.00 0.35 0.00 78 1026.1
20171216105111 39 237 0.0 0.0 0.00 0.35 0.00 78 1026.0
20171216103554 38 237 0.0 0.0 0.00 0.35 0.00 78 1025.8
20171216102104 38 237 0.0 0.0 0.00 0.35 0.00 78 1025.8
20171216100633 39 237 0.0 0.0 0.00 0.35 0.00 78 1025.7
20171216095115 39 237 0.0 0.0 0.00 0.35 0.00 78 1025.6
20171216093555 39 237 0.0 0.0 0.00 0.35 0.00 78 1025.6
20171216092043 39 252 0.0 1.0 0.00 0.35 0.00 78 1025.4
20171216090556 39 252 0.0 0.0 0.00 0.35 0.00 78 1025.4
20171216085045 39 252 0.0 1.0 0.00 0.35 0.00 78 1025.3
20171216083545 39 172 0.0 2.0 0.00 0.35 0.00 78 1025.0
20171216082127 39 253 0.0 2.0 0.00 0.35 0.00 78 1025.0
20171216080539 39 185 0.0 1.0 0.00 0.35 0.00 78 1024.9
20171216075038 39 212 0.0 2.0 0.00 0.35 0.35 78 1024.9
20171216073538 39 81 0.0 1.0 0.01 0.35 0.35 78 1024.8
20171216072037 39 80 0.0 1.0 0.02 0.35 0.35 78 1025.0
20171216070618 39 80 0.0 1.0 0.03 0.35 0.35 78 1024.9
20171216065032 39 80 0.0 1.0 0.07 0.35 0.35 78 1024.5
20171216063539 40 80 0.0 0.0 0.08 0.34 0.34 78 1024.5
20171216062029 39 80 0.0 0.0 0.12 0.33 0.33 78 1024.5
20171216060527 39 80 0.0 0.0 0.13 0.32 0.32 78 1024.4
20171216055059 39 80 0.0 1.0 0.16 0.28 0.28 79 1024.3
20171216053533 39 80 0.0 0.0 0.19 0.25 0.25 79 1024.4
20171216052026 39 98 0.0 2.0 0.18 0.21 0.21 79 1024.7
20171216050524 40 165 0.0 2.0 0.17 0.19 0.19 80 1024.5
20171216045103 40 302 0.0 2.0 0.10 0.12 0.12 82 1024.6
20171216043524 40 27 0.0 2.0 0.04 0.06 0.06 84 1024.2
20171216042028 41 26 0.0 4.0 0.01 0.03 0.03 80 1024.0
20171216040534 41 174 0.0 1.0 0.00 0.02 0.02 81 1023.7
20171216035021 41 174 0.0 1.0 0.00 0.02 0.02 80 1023.3
20171216033518 41 174 0.0 1.0 0.00 0.02 0.02 80 1023.3
20171216032144 41 173 0.0 1.0 0.00 0.02 0.02 82 1023.5
20171216030542 41 173 0.0 0.0 0.00 0.02 0.02 83 1023.6
20171216025050 41 173 0.0 0.0 0.00 0.02 0.02 82 1023.5
20171216023655 41 173 0.0 0.0 0.00 0.02 0.02 83 1023.2
20171216022025 41 173 0.0 0.0 0.00 0.02 0.02 84 1023.3
20171216020536 41 173 0.0 0.0 0.00 0.02 0.02 85 1023.2
20171216015044 41 173 0.0 0.0 0.00 0.02 0.02 86 1023.2
20171216013520 42 173 0.0 0.0 0.00 0.02 0.02 87 1023.1
20171216012017 42 173 0.0 0.0 0.00 0.02 0.02 88 1023.1
20171216010513 42 174 0.0 0.0 0.00 0.02 0.02 89 1023.0
20171216005026 42 174 0.0 0.0 0.00 0.02 0.02 89 1022.9
20171216003511 42 174 0.0 0.0 0.00 0.02 0.02 90 1022.9
20171216002027 42 174 0.0 2.0 0.00 0.02 0.02 90 1022.7
20171216000526 42 163 0.0 2.0 0.00 0.02 0.02 90 1022.5
20171215235017 42 163 0.0 0.0 0.00 0.02 0.02 90 1022.2
20171215233529 42 163 0.0 0.0 0.00 0.02 0.02 90 1022.3
20171215232027 43 163 0.0 2.0 0.00 0.02 0.02 90 1022.2
20171215230509 42 163 0.0 2.0 0.00 0.02 0.02 90 1022.1
20171215225031 42 183 0.0 1.0 0.00 0.02 0.02 90 1021.9
20171215223541 42 183 0.0 2.0 0.00 0.02 0.02 90 1021.9
20171215222118 43 261 0.0 0.0 0.00 0.02 0.02 90 1021.6